Time;durP1;ratioP1;P1;durP2;ratioP2;P2;SDS_P1;SDS_P2;PMS_P1;PMS_P2;Temp;Humidity;BMP_temperature;BMP_pressure;BME280_temperature;BME280_humidity;BME280_pressure;Samples;Min_cycle;Max_cycle;Signal;HPM_P1;HPM_P2
2023/04/02 00:00:55;;;;;;;;;;;;;;;4.02;100.00;96000.66;5081197;28;19923;-70
2023/04/02 00:03:21;;;;;;;;;;;;;;;4.07;100.00;95988.00;5076421;28;19942;-69
2023/04/02 00:05:49;;;;;;;;;;;;;;;4.19;100.00;95990.69;5063342;28;20014;-70
2023/04/02 00:08:22;;;;;;;;;;;;;;;4.19;100.00;95990.69;5076645;28;19969;-71
2023/04/02 00:10:49;;;;;;;;;;;;;;;4.27;100.00;95997.91;5081091;28;19916;-70
2023/04/02 00:13:14;;;;;;;;;;;;;;;4.24;100.00;95993.16;5076496;28;19916;-70
2023/04/02 00:15:41;;;;;;;;;;;;;;;4.24;100.00;95997.81;5079941;28;20329;-71
2023/04/02 00:18:09;;;;;;;;;;;;;;;4.29;100.00;96008.41;5076008;28;20027;-70
2023/04/02 00:20:37;;;;;;;;;;;;;;;4.26;100.00;96003.69;5079975;28;19951;-71
2023/04/02 00:23:03;;;;;;;;;;;;;;;4.30;100.00;96001.84;5060948;28;19923;-65
2023/04/02 00:25:29;;;;;;;;;;;;;;;4.33;100.00;96004.66;5079545;28;19916;-71
2023/04/02 00:27:55;;;;;;;;;;;;;;;4.34;100.00;96008.97;5063648;28;20329;-72
2023/04/02 00:30:20;;;;;;;;;;;;;;;4.48;100.00;96011.28;5076104;28;19923;-71
2023/04/02 00:32:46;;;;;;;;;;;;;;;4.67;100.00;96007.97;5081501;28;20355;-71
2023/04/02 00:35:17;;;;;;;;;;;;;;;4.74;100.00;96004.66;5076526;28;20477;-71
2023/04/02 00:37:43;;;;;;;;;;;;;;;4.78;100.00;96009.03;5081411;28;20014;-70
2023/04/02 00:40:08;;;;;;;;;;;;;;;4.83;100.00;96012.66;5058332;28;19999;-70
2023/04/02 00:42:34;;;;;;;;;;;;;;;4.82;100.00;96009.13;5081270;28;19923;-71
2023/04/02 00:45:00;;;;;;;;;;;;;;;4.86;100.00;96006.50;5080514;28;20339;-70
2023/04/02 00:47:30;;;;;;;;;;;;;;;4.94;100.00;96013.72;5066562;28;19923;-71
2023/04/02 00:49:58;;;;;;;;;;;;;;;5.04;100.00;96010.50;5043377;28;19963;-71
2023/04/02 00:52:25;;;;;;;;;;;;;;;5.06;100.00;95999.28;5071794;28;20034;-70
2023/04/02 00:54:55;;;;;;;;;;;;;;;5.12;100.00;96000.63;5081371;28;19969;-70
2023/04/02 00:57:24;;;;;;;;;;;;;;;5.17;100.00;96000.38;5078578;28;19920;-70
2023/04/02 01:00:03;;;;;;;;;;;;;;;5.30;100.00;95992.94;5086091;28;19920;-71
2023/04/02 01:02:31;;;;;;;;;;;;;;;5.43;100.00;95999.84;5082757;28;19920;-69
2023/04/02 01:04:58;;;;;;;;;;;;;;;5.45;100.00;96000.28;5080973;28;19931;-70
2023/04/02 01:07:41;;;;;;;;;;;;;;;5.45;100.00;96000.28;5090313;28;19915;-70
2023/04/02 01:10:10;;;;;;;;;;;;;;;5.54;100.00;96003.63;5092036;28;19959;-71
2023/04/02 01:12:43;;;;;;;;;;;;;;;5.59;100.00;96007.22;5081725;28;19920;-66
2023/04/02 01:15:16;;;;;;;;;;;;;;;5.53;100.00;96006.72;5094046;28;19966;-71
2023/04/02 01:17:59;;;;;;;;;;;;;;;5.59;100.00;96004.50;5082756;28;19920;-72
2023/04/02 01:20:40;;;;;;;;;;;;;;;5.62;100.00;96001.06;5077809;28;20363;-71
2023/04/02 01:23:13;;;;;;;;;;;;;;;5.67;100.00;96017.94;5079146;28;20002;-72
2023/04/02 01:25:57;;;;;;;;;;;;;;;5.93;100.00;96013.88;5086201;28;19923;-71
2023/04/02 01:28:26;;;;;;;;;;;;;;;6.07;100.00;96016.94;5101182;28;19931;-71
2023/04/02 01:30:53;;;;;;;;;;;;;;;6.08;100.00;96012.28;5086886;28;19916;-71
2023/04/02 01:33:20;;;;;;;;;;;;;;;6.17;100.00;96012.09;5089184;28;19916;-72
2023/04/02 01:35:48;;;;;;;;;;;;;;;6.08;100.00;96009.56;5092542;28;19916;-72
2023/04/02 01:38:20;;;;;;;;;;;;;;;6.05;100.00;96016.50;5101895;28;19920;-71
2023/04/02 01:40:51;;;;;;;;;;;;;;;6.03;100.00;96010.63;5110165;28;20006;-71
2023/04/02 01:43:16;;;;;;;;;;;;;;;5.91;100.00;96013.44;5099309;28;19920;-71
2023/04/02 01:45:41;;;;;;;;;;;;;;;5.82;100.00;96007.41;5075281;28;20385;-71
2023/04/02 01:48:15;;;;;;;;;;;;;;;5.67;100.00;96014.41;5063794;28;19963;-69
2023/04/02 01:50:41;;;;;;;;;;;;;;;5.53;100.00;96015.63;5083576;28;19919;-70
2023/04/02 01:53:09;;;;;;;;;;;;;;;5.50;100.00;96016.34;5079927;28;19924;-68
2023/04/02 01:55:47;;;;;;;;;;;;;;;5.34;100.00;96023.69;5102128;28;19920;-71
2023/04/02 01:58:13;;;;;;;;;;;;;;;5.22;100.00;96021.84;5078672;28;19933;-72
2023/04/02 02:00:48;;;;;;;;;;;;;;;5.10;100.00;96022.69;5083030;28;19916;-71
2023/04/02 02:03:14;;;;;;;;;;;;;;;5.00;100.00;96025.91;5083194;28;20365;-71
2023/04/02 02:05:40;;;;;;;;;;;;;;;4.89;100.00;96025.59;5083238;28;19924;-71
2023/04/02 02:08:10;;;;;;;;;;;;;;;4.81;100.00;96021.13;5078474;28;19930;-70
2023/04/02 02:10:38;;;;;;;;;;;;;;;4.82;100.00;96027.34;5083556;28;19916;-68
2023/04/02 02:13:03;;;;;;;;;;;;;;;4.97;100.00;96027.38;5080466;28;19939;-67
2023/04/02 02:15:31;;;;;;;;;;;;;;;4.98;100.00;96033.59;5082212;28;19916;-71
2023/04/02 02:17:58;;;;;;;;;;;;;;;5.01;100.00;96030.19;5083639;28;19978;-70
2023/04/02 02:20:25;;;;;;;;;;;;;;;5.16;100.00;96029.44;5077530;28;20080;-71
2023/04/02 02:22:50;;;;;;;;;;;;;;;5.28;100.00;96025.88;5082819;28;20010;-70
2023/04/02 02:25:18;;;;;;;;;;;;;;;5.37;100.00;96039.28;5078400;28;20101;-71
2023/04/02 02:27:47;;;;;;;;;;;;;;;5.47;100.00;96041.47;5082853;28;19923;-71
2023/04/02 02:30:15;;;;;;;;;;;;;;;5.50;100.00;96043.50;5060909;28;20461;-69
2023/04/02 02:33:07;;;;;;;;;;;;;;;5.42;100.00;96038.22;5082942;28;20380;-69
2023/04/02 02:35:35;;;;;;;;;;;;;;;5.34;100.00;96039.97;5080059;28;19928;-69
2023/04/02 02:38:10;;;;;;;;;;;;;;;5.32;100.00;96040.31;5082635;28;19920;-65
2023/04/02 02:40:37;;;;;;;;;;;;;;;5.19;100.00;96052.41;5083641;28;20009;-71
2023/04/02 02:43:06;;;;;;;;;;;;;;;5.05;100.00;96047.38;5082419;28;19920;-66
2023/04/02 02:45:36;;;;;;;;;;;;;;;5.11;100.00;96046.00;5089726;28;19916;-71
2023/04/02 02:48:02;;;;;;;;;;;;;;;5.28;100.00;96063.09;5080363;28;19916;-71
2023/04/02 02:50:30;;;;;;;;;;;;;;;5.24;100.00;96060.28;5080295;28;19924;-70
2023/04/02 02:53:02;;;;;;;;;;;;;;;5.21;100.00;96054.78;5084043;28;19916;-72
2023/04/02 02:55:30;;;;;;;;;;;;;;;5.20;100.00;96069.47;5061056;28;20373;-72
2023/04/02 02:58:12;;;;;;;;;;;;;;;5.14;100.00;96066.22;5083978;28;19921;-72
2023/04/02 03:00:38;;;;;;;;;;;;;;;5.06;100.00;96067.16;5083264;28;19988;-72
2023/04/02 03:03:08;;;;;;;;;;;;;;;5.05;100.00;96069.06;5078259;28;19919;-68
2023/04/02 03:05:34;;;;;;;;;;;;;;;5.05;100.00;96071.78;5048967;28;19965;-70
2023/04/02 03:08:01;;;;;;;;;;;;;;;5.07;100.00;96068.72;5086245;28;19939;-73
2023/04/02 03:10:46;;;;;;;;;;;;;;;5.11;100.00;96075.84;5081698;28;19923;-72
2023/04/02 03:13:26;;;;;;;;;;;;;;;5.13;100.00;96078.19;5084021;28;19916;-71
2023/04/02 03:16:14;;;;;;;;;;;;;;;5.31;100.00;96084.91;5082920;28;19924;-72
2023/04/02 03:18:57;;;;;;;;;;;;;;;5.30;100.00;96083.31;5083950;28;19928;-71
2023/04/02 03:21:23;;;;;;;;;;;;;;;5.34;100.00;96086.91;5078715;28;20881;-73
2023/04/02 03:23:52;;;;;;;;;;;;;;;5.44;100.00;96082.94;5064317;28;20010;-73
2023/04/02 03:26:21;;;;;;;;;;;;;;;5.34;100.00;96081.50;5078978;28;19916;-73
2023/04/02 03:28:59;;;;;;;;;;;;;;;5.26;100.00;96089.81;5070981;28;19920;-73
2023/04/02 03:31:30;;;;;;;;;;;;;;;5.20;100.00;96086.53;5064455;28;20379;-71
2023/04/02 03:34:01;;;;;;;;;;;;;;;5.13;100.00;96089.88;5082911;28;19927;-72
2023/04/02 03:36:29;;;;;;;;;;;;;;;5.12;100.00;96090.22;5059152;28;19920;-73
2023/04/02 03:38:59;;;;;;;;;;;;;;;5.10;100.00;96090.56;5064687;28;19923;-72
2023/04/02 03:41:31;;;;;;;;;;;;;;;5.14;100.00;96093.38;5058511;28;19916;-72
2023/04/02 03:44:02;;;;;;;;;;;;;;;5.13;100.00;96092.59;5077415;28;20294;-72
2023/04/02 03:46:33;;;;;;;;;;;;;;;5.22;100.00;96091.63;5060277;28;20292;-72
2023/04/02 03:49:07;;;;;;;;;;;;;;;5.20;100.00;96093.91;5050724;28;19916;-72
2023/04/02 03:51:36;;;;;;;;;;;;;;;5.15;100.00;96090.31;5070354;28;19955;-73
2023/04/02 03:54:02;;;;;;;;;;;;;;;5.15;100.00;96094.97;5081327;28;19926;-72
2023/04/02 03:56:30;;;;;;;;;;;;;;;5.16;100.00;96094.59;5060125;28;20393;-72
2023/04/02 03:59:05;;;;;;;;;;;;;;;5.14;100.00;96090.66;5063038;28;19956;-73
2023/04/02 04:01:40;;;;;;;;;;;;;;;5.11;100.00;96097.56;5073525;28;19988;-72
2023/04/02 04:04:09;;;;;;;;;;;;;;;5.13;100.00;96087.16;5057326;28;19921;-73
2023/04/02 04:06:35;;;;;;;;;;;;;;;5.13;100.00;96094.47;5081538;28;19947;-73
2023/04/02 04:09:09;;;;;;;;;;;;;;;5.14;100.00;96101.50;5076421;28;19917;-72
2023/04/02 04:11:36;;;;;;;;;;;;;;;5.20;100.00;96102.81;5071329;28;20018;-73
2023/04/02 04:14:05;;;;;;;;;;;;;;;5.22;100.00;96102.47;5082754;28;19916;-73
2023/04/02 04:16:54;;;;;;;;;;;;;;;5.21;100.00;96106.34;5063542;28;19921;-72
2023/04/02 04:19:23;;;;;;;;;;;;;;;5.26;100.00;96120.47;5069686;28;19916;-71
2023/04/02 04:21:52;;;;;;;;;;;;;;;5.28;100.00;96109.25;5081145;28;20524;-72
2023/04/02 04:24:21;;;;;;;;;;;;;;;5.40;100.00;96109.19;5058740;28;20532;-72
2023/04/02 04:26:56;;;;;;;;;;;;;;;5.46;100.00;96120.59;5063071;28;19920;-70
2023/04/02 04:29:44;;;;;;;;;;;;;;;5.47;100.00;96112.09;5077506;28;20312;-71
2023/04/02 04:32:15;;;;;;;;;;;;;;;5.47;100.00;96117.53;5077111;28;20006;-73
2023/04/02 04:34:50;;;;;;;;;;;;;;;5.51;100.00;96118.41;5063555;28;20286;-71
2023/04/02 04:37:24;;;;;;;;;;;;;;;5.59;100.00;96121.31;5075901;28;20409;-72
2023/04/02 04:39:53;;;;;;;;;;;;;;;5.58;100.00;96123.22;5064045;28;20284;-71
2023/04/02 04:42:31;;;;;;;;;;;;;;;5.58;100.00;96136.81;5076909;28;19924;-73
2023/04/02 04:44:56;;;;;;;;;;;;;;;5.55;100.00;96138.31;5082250;28;20412;-74
2023/04/02 04:47:30;;;;;;;;;;;;;;;5.52;100.00;96138.22;5068386;28;19927;-73
2023/04/02 04:49:58;;;;;;;;;;;;;;;5.67;100.00;96152.97;5078829;28;19916;-72
2023/04/02 04:52:25;;;;;;;;;;;;;;;5.81;100.00;96152.56;5079073;28;19916;-71
2023/04/02 04:54:50;;;;;;;;;;;;;;;5.79;100.00;96155.63;5083791;28;19916;-72
2023/04/02 04:57:22;;;;;;;;;;;;;;;5.86;100.00;96158.53;5061848;28;19951;-70
2023/04/02 04:59:53;;;;;;;;;;;;;;;5.85;100.00;96156.97;5088132;28;19920;-72
2023/04/02 05:02:25;;;;;;;;;;;;;;;5.69;100.00;96156.94;5067840;28;19935;-72
2023/04/02 05:04:51;;;;;;;;;;;;;;;5.59;100.00;96154.72;5085533;28;20337;-72
2023/04/02 05:07:21;;;;;;;;;;;;;;;5.51;100.00;96152.94;5081529;28;20034;-70
2023/04/02 05:10:11;;;;;;;;;;;;;;;5.49;100.00;96161.44;5084016;28;19923;-72
2023/04/02 05:12:42;;;;;;;;;;;;;;;5.65;100.00;96163.38;5066920;28;19920;-72
2023/04/02 05:15:20;;;;;;;;;;;;;;;5.75;100.00;96169.09;5079138;28;20409;-73
2023/04/02 05:17:54;;;;;;;;;;;;;;;5.87;100.00;96176.41;5086677;28;19924;-73
2023/04/02 05:20:20;;;;;;;;;;;;;;;6.10;100.00;96173.13;5061789;28;20554;-71
2023/04/02 05:22:45;;;;;;;;;;;;;;;6.12;100.00;96174.38;5085440;28;19916;-73
2023/04/02 05:25:10;;;;;;;;;;;;;;;6.30;100.00;96182.16;5079516;28;19969;-72
2023/04/02 05:27:42;;;;;;;;;;;;;;;6.37;100.00;96176.88;5084956;28;19920;-73
2023/04/02 05:30:22;;;;;;;;;;;;;;;6.32;100.00;96180.69;5063038;28;19922;-72
2023/04/02 05:32:59;;;;;;;;;;;;;;;6.32;100.00;96183.41;5090680;28;19916;-71
2023/04/02 05:35:28;;;;;;;;;;;;;;;6.33;100.00;96184.19;5112633;28;20249;-69
2023/04/02 05:37:53;;;;;;;;;;;;;;;6.35;100.00;96190.06;5110391;28;19931;-72
2023/04/02 05:40:22;;;;;;;;;;;;;;;6.35;100.00;96195.50;5082550;28;19916;-71
2023/04/02 05:42:48;;;;;;;;;;;;;;;6.40;100.00;96192.53;5106541;28;19916;-73
2023/04/02 05:45:30;;;;;;;;;;;;;;;6.42;100.00;96198.41;5072237;28;19920;-73
2023/04/02 05:48:00;;;;;;;;;;;;;;;6.53;100.00;96204.09;5072267;28;20011;-74
2023/04/02 05:50:26;;;;;;;;;;;;;;;6.56;100.00;96210.78;5062359;28;19921;-73
2023/04/02 05:52:55;;;;;;;;;;;;;;;6.55;100.00;96201.03;5086429;28;20387;-73
2023/04/02 05:55:47;;;;;;;;;;;;;;;6.52;100.00;96210.69;5080538;28;19923;-71
2023/04/02 05:58:16;;;;;;;;;;;;;;;6.57;100.00;96215.88;5046485;28;19924;-71
2023/04/02 06:00:46;;;;;;;;;;;;;;;6.63;100.00;96216.38;5085468;28;19916;-72
2023/04/02 06:03:15;;;;;;;;;;;;;;;6.73;100.00;96221.28;5081847;28;19977;-71
2023/04/02 06:05:43;;;;;;;;;;;;;;;6.84;100.00;96226.97;5085307;28;20178;-72
2023/04/02 06:08:18;;;;;;;;;;;;;;;7.00;100.00;96229.66;5088964;28;19931;-72
2023/04/02 06:10:53;;;;;;;;;;;;;;;7.04;100.00;96223.16;5096249;28;19916;-73
2023/04/02 06:13:19;;;;;;;;;;;;;;;7.21;100.00;96230.16;5066236;28;19958;-72
2023/04/02 06:15:45;;;;;;;;;;;;;;;7.28;100.00;96232.25;5089181;28;19916;-71
2023/04/02 06:18:16;;;;;;;;;;;;;;;7.32;100.00;96235.03;5054894;28;19942;-71
2023/04/02 06:20:41;;;;;;;;;;;;;;;7.37;100.00;96232.81;5086642;28;19923;-71
2023/04/02 06:23:29;;;;;;;;;;;;;;;7.45;100.00;96237.28;5063285;28;20333;-70
2023/04/02 06:26:02;;;;;;;;;;;;;;;7.55;100.00;96244.09;5066286;28;20023;-71
2023/04/02 06:28:45;;;;;;;;;;;;;;;7.64;100.00;96247.41;5062446;28;20344;-71
2023/04/02 06:31:20;;;;;;;;;;;;;;;7.78;100.00;96257.81;5079388;28;19934;-72
2023/04/02 06:33:51;;;;;;;;;;;;;;;7.88;100.00;96252.91;5088451;28;20295;-72
2023/04/02 06:36:17;;;;;;;;;;;;;;;7.70;100.00;96258.78;5080112;28;19916;-72
2023/04/02 06:38:42;;;;;;;;;;;;;;;7.83;100.00;96257.53;5083380;28;20031;-71
2023/04/02 06:41:14;;;;;;;;;;;;;;;7.98;100.00;96264.03;5061357;28;19923;-72
2023/04/02 06:44:02;;;;;;;;;;;;;;;8.13;100.00;96261.59;5092076;28;19920;-71
2023/04/02 06:46:30;;;;;;;;;;;;;;;7.94;100.00;96265.91;5065546;28;19959;-73
2023/04/02 06:49:00;;;;;;;;;;;;;;;7.95;100.00;96272.94;5076553;28;19916;-71
2023/04/02 06:51:27;;;;;;;;;;;;;;;7.95;100.00;96269.41;5079799;28;19920;-72
2023/04/02 06:53:52;;;;;;;;;;;;;;;8.09;100.00;96269.69;5083866;28;19920;-72
2023/04/02 06:56:21;;;;;;;;;;;;;;;8.32;100.00;96271.66;5078771;28;20020;-73
2023/04/02 06:58:46;;;;;;;;;;;;;;;8.58;100.00;96273.72;5083733;28;19927;-71
2023/04/02 07:01:22;;;;;;;;;;;;;;;8.89;97.47;96282.81;5061356;28;19916;-73
2023/04/02 07:03:48;;;;;;;;;;;;;;;9.29;94.65;96278.72;5066293;28;20016;-73
2023/04/02 07:06:18;;;;;;;;;;;;;;;9.52;90.33;96275.94;5059727;28;20314;-73
2023/04/02 07:08:43;;;;;;;;;;;;;;;9.79;88.36;96273.94;5065456;28;19923;-73
2023/04/02 07:11:12;;;;;;;;;;;;;;;10.23;83.19;96276.03;5077612;28;19916;-72
2023/04/02 07:13:37;;;;;;;;;;;;;;;10.02;87.32;96278.50;5064838;28;19939;-72
2023/04/02 07:16:03;;;;;;;;;;;;;;;10.21;80.60;96283.00;5078781;28;20365;-68
2023/04/02 07:18:30;;;;;;;;;;;;;;;10.20;80.17;96286.94;5082136;28;20003;-72
2023/04/02 07:20:55;;;;;;;;;;;;;;;10.05;81.47;96284.03;5064134;28;19927;-72
2023/04/02 07:23:20;;;;;;;;;;;;;;;10.60;79.48;96288.94;5080551;28;19920;-73
2023/04/02 07:25:47;;;;;;;;;;;;;;;10.20;76.67;96286.94;5081940;28;20380;-70
2023/04/02 07:28:13;;;;;;;;;;;;;;;10.74;80.51;96288.28;5063603;28;19923;-72
2023/04/02 07:30:39;;;;;;;;;;;;;;;11.80;72.63;96294.91;5065903;28;19923;-72
2023/04/02 07:33:04;;;;;;;;;;;;;;;13.09;63.91;96293.66;5079091;28;19915;-67
2023/04/02 07:35:29;;;;;;;;;;;;;;;12.91;61.69;96297.22;5082317;28;19959;-72
2023/04/02 07:37:55;;;;;;;;;;;;;;;12.22;63.45;96299.00;5083039;28;19966;-73
2023/04/02 07:40:21;;;;;;;;;;;;;;;11.13;70.20;96301.53;5079024;28;19916;-73
2023/04/02 07:42:47;;;;;;;;;;;;;;;11.62;68.14;96308.50;5065176;28;19961;-71
2023/04/02 07:45:12;;;;;;;;;;;;;;;11.47;69.73;96317.84;5046104;28;19920;-72
2023/04/02 07:47:38;;;;;;;;;;;;;;;11.32;71.48;96313.41;5073198;28;19924;-73
2023/04/02 07:50:03;;;;;;;;;;;;;;;11.33;69.42;96317.75;5044897;28;20411;-69
2023/04/02 07:52:30;;;;;;;;;;;;;;;11.16;71.10;96314.47;5081385;28;19916;-72
2023/04/02 07:54:55;;;;;;;;;;;;;;;11.71;69.21;96308.19;5080895;28;20032;-73
2023/04/02 07:57:20;;;;;;;;;;;;;;;11.90;69.08;96317.28;5075136;28;19920;-72
2023/04/02 07:59:46;;;;;;;;;;;;;;;12.48;65.36;96316.38;5082632;28;19966;-73
2023/04/02 08:02:29;;;;;;;;;;;;;;;12.19;65.30;96313.53;5073798;28;19916;-73
2023/04/02 08:04:55;;;;;;;;;;;;;;;11.88;67.09;96331.38;5081587;28;20022;-73
2023/04/02 08:07:20;;;;;;;;;;;;;;;11.37;67.99;96322.06;5077646;28;20038;-72
2023/04/02 08:09:46;;;;;;;;;;;;;;;11.41;68.56;96322.88;5078678;28;20404;-75
2023/04/02 08:12:12;;;;;;;;;;;;;;;11.33;68.99;96315.78;5076444;28;19923;-72
2023/04/02 08:14:37;;;;;;;;;;;;;;;11.27;68.26;96325.50;5046055;28;19924;-71
2023/04/02 08:17:02;;;;;;;;;;;;;;;11.21;69.96;96319.59;5078757;28;19920;-67
2023/04/02 08:19:28;;;;;;;;;;;;;;;11.86;65.70;96326.28;5079692;28;19921;-73
2023/04/02 08:21:54;;;;;;;;;;;;;;;12.40;64.31;96325.75;5083154;28;19920;-73
2023/04/02 08:24:20;;;;;;;;;;;;;;;13.27;62.54;96334.91;5077135;28;20392;-73
2023/04/02 08:26:46;;;;;;;;;;;;;;;14.07;58.93;96333.66;5082734;28;19920;-73
2023/04/02 08:29:11;;;;;;;;;;;;;;;13.69;57.60;96330.59;5078109;28;19916;-73
2023/04/02 08:31:37;;;;;;;;;;;;;;;13.66;58.33;96334.13;5082482;28;19962;-73
2023/04/02 08:34:03;;;;;;;;;;;;;;;13.87;58.02;96336.84;5062495;28;20019;-68
2023/04/02 08:36:31;;;;;;;;;;;;;;;14.04;55.82;96345.44;5080251;28;19916;-72
2023/04/02 08:38:56;;;;;;;;;;;;;;;12.88;59.40;96343.94;5083239;28;20388;-73
2023/04/02 08:41:26;;;;;;;;;;;;;;;12.81;60.41;96347.44;5078438;28;19931;-72
2023/04/02 08:44:10;;;;;;;;;;;;;;;12.11;62.84;96350.34;5083432;28;19916;-71
2023/04/02 08:46:55;;;;;;;;;;;;;;;12.67;62.01;96348.19;5078488;28;19932;-71
2023/04/02 08:49:29;;;;;;;;;;;;;;;13.18;59.83;96352.59;5071387;28;19982;-69
2023/04/02 08:51:55;;;;;;;;;;;;;;;12.83;60.81;96353.34;5082969;28;19969;-73
2023/04/02 08:54:26;;;;;;;;;;;;;;;12.90;60.81;96350.59;5078901;28;19991;-74
2023/04/02 08:56:55;;;;;;;;;;;;;;;13.09;60.39;96360.47;5083554;28;20535;-71
2023/04/02 08:59:34;;;;;;;;;;;;;;;13.12;58.68;96351.41;5079981;28;19920;-73
2023/04/02 09:02:23;;;;;;;;;;;;;;;13.18;58.92;96360.84;5088521;28;20006;-74
2023/04/02 09:04:49;;;;;;;;;;;;;;;12.91;58.62;96352.19;5081112;28;19920;-74
2023/04/02 09:07:15;;;;;;;;;;;;;;;13.41;58.57;96354.19;5077278;28;19975;-74
2023/04/02 09:09:41;;;;;;;;;;;;;;;12.84;59.12;96360.41;5078008;28;19920;-72
2023/04/02 09:12:15;;;;;;;;;;;;;;;12.77;59.36;96363.94;5057033;28;19943;-73
2023/04/02 09:14:50;;;;;;;;;;;;;;;13.23;59.39;96364.38;5075877;28;19962;-73
2023/04/02 09:17:19;;;;;;;;;;;;;;;12.54;59.69;96372.50;5074536;28;19920;-73
2023/04/02 09:19:56;;;;;;;;;;;;;;;13.03;59.04;96364.75;5080793;28;19920;-74
2023/04/02 09:22:21;;;;;;;;;;;;;;;13.48;57.52;96372.66;5058437;28;19922;-73
2023/04/02 09:24:51;;;;;;;;;;;;;;;13.33;56.81;96371.88;5063281;28;20451;-72
2023/04/02 09:27:20;;;;;;;;;;;;;;;13.51;58.03;96378.16;5058433;28;19916;-71
2023/04/02 09:29:48;;;;;;;;;;;;;;;13.84;57.09;96373.41;5081771;28;19923;-73
2023/04/02 09:32:32;;;;;;;;;;;;;;;14.05;56.09;96377.31;5077099;28;19959;-73
2023/04/02 09:35:08;;;;;;;;;;;;;;;14.58;55.19;96384.63;5083293;28;19931;-72
2023/04/02 09:37:34;;;;;;;;;;;;;;;15.05;54.04;96373.34;5081578;28;19927;-73
2023/04/02 09:40:18;;;;;;;;;;;;;;;15.74;51.12;96384.66;5064416;28;19917;-74
2023/04/02 09:42:44;;;;;;;;;;;;;;;16.38;49.75;96392.31;5080117;28;19920;-74
2023/04/02 09:45:22;;;;;;;;;;;;;;;16.80;46.67;96389.44;5081678;28;19962;-73
2023/04/02 09:47:49;;;;;;;;;;;;;;;16.05;48.50;96388.34;5085565;28;19943;-72
2023/04/02 09:50:20;;;;;;;;;;;;;;;16.58;46.72;96392.47;5064313;28;19920;-72
2023/04/02 09:52:45;;;;;;;;;;;;;;;15.85;48.43;96372.34;5086775;28;19916;-73
2023/04/02 09:55:14;;;;;;;;;;;;;;;15.89;49.52;96391.63;5081725;28;19950;-73
2023/04/02 09:57:39;;;;;;;;;;;;;;;17.69;47.20;96395.66;5088669;28;19924;-72
2023/04/02 10:00:28;;;;;;;;;;;;;;;18.73;43.10;96395.75;5062204;28;19916;-70
2023/04/02 10:03:00;;;;;;;;;;;;;;;18.59;42.57;96399.59;5084444;28;19931;-72
2023/04/02 10:05:26;;;;;;;;;;;;;;;18.23;43.98;96400.28;5076761;28;20309;-72
2023/04/02 10:07:52;;;;;;;;;;;;;;;19.62;41.83;96395.75;5084208;28;19923;-74
2023/04/02 10:10:29;;;;;;;;;;;;;;;17.70;45.06;96396.44;5081049;28;19916;-73
2023/04/02 10:13:00;;;;;;;;;;;;;;;19.19;41.09;96396.75;5068002;28;19970;-74
2023/04/02 10:15:32;;;;;;;;;;;;;;;17.70;42.52;96401.97;5066699;28;19923;-73
2023/04/02 10:18:06;;;;;;;;;;;;;;;18.52;42.62;96399.75;5081798;28;19924;-73
2023/04/02 10:20:32;;;;;;;;;;;;;;;19.06;41.17;96407.75;5073446;28;20007;-74
2023/04/02 10:22:57;;;;;;;;;;;;;;;16.67;45.30;96407.78;5063861;28;19951;-74
2023/04/02 10:25:26;;;;;;;;;;;;;;;15.94;47.14;96412.53;5059210;28;19917;-75
2023/04/02 10:28:11;;;;;;;;;;;;;;;15.39;47.26;96406.59;5063231;28;19954;-74
2023/04/02 10:30:50;;;;;;;;;;;;;;;15.65;47.49;96424.56;5064531;28;19916;-73
2023/04/02 10:33:26;;;;;;;;;;;;;;;16.75;45.31;96412.81;5058258;28;19941;-73
2023/04/02 10:36:10;;;;;;;;;;;;;;;17.38;44.07;96426.19;5046322;28;19964;-73
2023/04/02 10:38:41;;;;;;;;;;;;;;;17.00;44.36;96422.81;5061342;28;20024;-72
2023/04/02 10:41:25;;;;;;;;;;;;;;;16.31;45.19;96422.00;5059130;28;19995;-71
2023/04/02 10:43:54;;;;;;;;;;;;;;;16.06;46.78;96420.28;5064288;28;19939;-71
2023/04/02 10:46:27;;;;;;;;;;;;;;;15.99;47.56;96423.09;5072879;28;19916;-73
2023/04/02 10:49:11;;;;;;;;;;;;;;;16.44;46.39;96429.38;5072999;28;19990;-72
2023/04/02 10:51:47;;;;;;;;;;;;;;;17.31;45.26;96426.31;5074643;28;19920;-72
2023/04/02 10:54:32;;;;;;;;;;;;;;;16.74;45.03;96433.34;5080071;28;20002;-73
2023/04/02 10:57:05;;;;;;;;;;;;;;;16.01;46.99;96435.31;5084853;28;19928;-73
2023/04/02 10:59:33;;;;;;;;;;;;;;;15.78;48.29;96429.63;5081895;28;19916;-73
2023/04/02 11:02:00;;;;;;;;;;;;;;;15.94;47.60;96435.38;5082695;28;19916;-73
2023/04/02 11:04:28;;;;;;;;;;;;;;;16.30;46.07;96432.28;5077972;28;19963;-73
2023/04/02 11:07:01;;;;;;;;;;;;;;;15.47;47.58;96434.97;5065296;28;19916;-73
2023/04/02 11:09:30;;;;;;;;;;;;;;;14.89;48.83;96431.72;5079101;28;19920;-72
2023/04/02 11:11:57;;;;;;;;;;;;;;;14.67;47.87;96437.34;5082746;28;19916;-73
2023/04/02 11:14:24;;;;;;;;;;;;;;;14.98;47.46;96434.88;5079281;28;20675;-73
2023/04/02 11:16:50;;;;;;;;;;;;;;;15.47;47.30;96437.72;5095709;28;19920;-73
2023/04/02 11:19:15;;;;;;;;;;;;;;;15.68;46.99;96442.28;5060135;28;20338;-72
2023/04/02 11:21:55;;;;;;;;;;;;;;;16.04;45.32;96442.81;5083444;28;19916;-73
2023/04/02 11:24:25;;;;;;;;;;;;;;;16.04;46.00;96433.72;5067014;28;19967;-71
2023/04/02 11:26:52;;;;;;;;;;;;;;;15.77;46.02;96434.38;5083100;28;20375;-70
2023/04/02 11:29:20;;;;;;;;;;;;;;;16.34;44.51;96443.28;5079239;28;19920;-71
2023/04/02 11:31:46;;;;;;;;;;;;;;;16.55;43.93;96443.06;5083045;28;20011;-77
2023/04/02 11:34:12;;;;;;;;;;;;;;;16.79;44.88;96446.72;5078233;28;20007;-73
2023/04/02 11:36:51;;;;;;;;;;;;;;;17.10;44.36;96460.59;5082492;28;20291;-73
2023/04/02 11:39:35;;;;;;;;;;;;;;;16.68;44.02;96459.13;5078515;28;19927;-73
2023/04/02 11:42:05;;;;;;;;;;;;;;;16.69;43.21;96455.16;5085264;28;19916;-73
2023/04/02 11:44:30;;;;;;;;;;;;;;;16.08;45.02;96453.81;5082819;28;19922;-73
2023/04/02 11:47:15;;;;;;;;;;;;;;;16.44;44.32;96451.47;5075173;28;19916;-72
2023/04/02 11:50:04;;;;;;;;;;;;;;;16.01;44.79;96456.66;5081492;28;19927;-71
2023/04/02 11:52:31;;;;;;;;;;;;;;;15.61;45.89;96453.38;5081952;28;19916;-71
2023/04/02 11:55:17;;;;;;;;;;;;;;;16.18;45.37;96452.91;5084569;28;19920;-71
2023/04/02 11:58:11;;;;;;;;;;;;;;;15.93;45.85;96444.06;5082682;28;20403;-71
2023/04/02 12:00:56;;;;;;;;;;;;;;;15.95;45.22;96449.97;5050377;28;19916;-71
2023/04/02 12:03:21;;;;;;;;;;;;;;;16.52;43.33;96456.94;5076557;28;19916;-71
2023/04/02 12:05:57;;;;;;;;;;;;;;;16.25;43.02;96452.84;5062435;28;20335;-70
2023/04/02 12:08:38;;;;;;;;;;;;;;;16.04;43.64;96451.09;5076082;28;20006;-70
2023/04/02 12:11:04;;;;;;;;;;;;;;;15.98;44.53;96451.94;5076467;28;20010;-72
2023/04/02 12:13:38;;;;;;;;;;;;;;;16.13;44.98;96452.56;5063334;28;19916;-71
2023/04/02 12:16:04;;;;;;;;;;;;;;;16.69;43.81;96450.41;5077656;28;19916;-72
2023/04/02 12:18:30;;;;;;;;;;;;;;;16.42;43.36;96453.88;5063144;28;20007;-70
2023/04/02 12:20:56;;;;;;;;;;;;;;;16.07;43.82;96446.72;5081474;28;20011;-71
2023/04/02 12:23:32;;;;;;;;;;;;;;;16.49;43.48;96447.47;5057677;28;20023;-72
2023/04/02 12:25:58;;;;;;;;;;;;;;;16.94;42.60;96449.34;5062404;28;19955;-71
2023/04/02 12:28:27;;;;;;;;;;;;;;;16.72;41.63;96454.31;5076447;28;20502;-71
2023/04/02 12:31:01;;;;;;;;;;;;;;;16.20;43.47;96446.97;5080516;28;19916;-71
2023/04/02 12:33:36;;;;;;;;;;;;;;;16.60;43.34;96455.63;5076121;28;19920;-71
2023/04/02 12:36:02;;;;;;;;;;;;;;;16.68;42.26;96456.34;5080343;28;19940;-73
2023/04/02 12:38:29;;;;;;;;;;;;;;;17.22;42.36;96456.50;5059364;28;19924;-71
2023/04/02 12:41:15;;;;;;;;;;;;;;;16.71;43.85;96459.09;5081635;28;19916;-71
2023/04/02 12:43:40;;;;;;;;;;;;;;;17.22;44.81;96450.97;5078550;28;19951;-71
2023/04/02 12:46:07;;;;;;;;;;;;;;;16.02;46.03;96458.19;5063858;28;20459;-71
2023/04/02 12:48:33;;;;;;;;;;;;;;;15.88;45.32;96459.09;5072403;28;19924;-71
2023/04/02 12:51:00;;;;;;;;;;;;;;;16.32;45.01;96463.06;5081720;28;19923;-66
2023/04/02 12:53:29;;;;;;;;;;;;;;;16.39;45.67;96460.22;5076279;28;20276;-66
2023/04/02 12:55:55;;;;;;;;;;;;;;;16.04;46.55;96458.56;5080985;28;19916;-67
2023/04/02 12:58:43;;;;;;;;;;;;;;;15.87;47.47;96460.31;5075848;28;20383;-69
2023/04/02 13:01:27;;;;;;;;;;;;;;;15.90;46.47;96461.47;5070135;28;19963;-68
2023/04/02 13:03:58;;;;;;;;;;;;;;;15.78;47.57;96455.25;5080787;28;19935;-67
2023/04/02 13:06:25;;;;;;;;;;;;;;;15.74;48.34;96448.97;5077056;28;20371;-65